This is the latest recevied weather packets stored in our database for station/object W7PLC. If no packets are shown the sender has not sent any weather packets the latest 10 day(s).
| Time | Temp. | Humidity | Pressure | Rain* | Wind** | Luminosity | Snow |
|---|---|---|---|---|---|---|---|
| 1777922941 | 25.56° C | 54% | 1009.7 hPa | 0 mm | - | 520 W/m² | - |
| 1777922638 | 26.11° C | 52% | 1009.6 hPa | 0 mm | - | 606 W/m² | - |
| 1777922336 | 24.44° C | 55% | 1009.7 hPa | 0 mm | - | 624 W/m² | - |
| 1777922034 | 23.89° C | 56% | 1009.9 hPa | 0 mm | - | 601 W/m² | - |
| 1777921729 | 24.44° C | 55% | 1009.9 hPa | 0 mm | - | 624 W/m² | - |
| 1777921425 | 25° C | 55% | 1010 hPa | 0 mm | - | 612 W/m² | - |
| 1777921122 | 23.89° C | 59% | 1010.1 hPa | 0 mm | - | 587 W/m² | - |
| 1777920819 | 24.44° C | 56% | 1010 hPa | 0 mm | - | 589 W/m² | - |
| 1777920515 | 25° C | 56% | 1010.1 hPa | 0 mm | - | 643 W/m² | - |
| 1777920211 | 24.44° C | 56% | 1010.1 hPa | 0 mm | - | 649 W/m² | - |
| 1777919907 | 25.56° C | 56% | 1010 hPa | 0 mm | - | 641 W/m² | - |
| 1777919605 | 24.44° C | 57% | 1010.1 hPa | 0 mm | - | 634 W/m² | - |
| 1777919302 | 23.89° C | 58% | 1010.3 hPa | 0 mm | - | 631 W/m² | - |
| 1777919000 | 23.89° C | 57% | 1010.3 hPa | 0 mm | - | 596 W/m² | - |
| 1777918696 | 25° C | 56% | 1010.1 hPa | 0 mm | - | 587 W/m² | - |
| 1777918394 | 23.33° C | 60% | 1010.2 hPa | 0 mm | - | 598 W/m² | - |
| 1777918093 | 23.89° C | 57% | 1010.2 hPa | 0 mm | - | 635 W/m² | - |
| 1777917791 | 23.89° C | 60% | 1010.4 hPa | 0 mm | - | 627 W/m² | - |
| 1777917488 | 25° C | 56% | 1010.1 hPa | 0 mm | - | 615 W/m² | - |
| 1777917185 | 24.44° C | 60% | 1010.2 hPa | 0 mm | - | 577 W/m² | - |
| 1777916884 | 23.33° C | 59% | 1010.3 hPa | 0 mm | - | 569 W/m² | - |
| 1777916581 | 22.22° C | 59% | 1010.4 hPa | 0 mm | - | 534 W/m² | - |
| 1777916277 | 21.67° C | 60% | 1010.1 hPa | 0 mm | - | 510 W/m² | - |
| 1777915974 | 22.78° C | 60% | 1010.4 hPa | 0 mm | - | 480 W/m² | - |
| 1777915671 | 21.11° C | 62% | 1010.2 hPa | 0 mm | - | 501 W/m² | - |
* Rain latest hour (hover to see other rain measurements)
** Current wind speed in m/s (hover to see current wind gust speed)